Time,TemperatureF,DewpointF,PressureIn,WindDirection,WindDirectionDegrees,WindSpeedMPH,WindSpeedGustMPH,Humidity,HourlyPrecipIn,Conditions,Clouds,dailyrainin,SoftwareType,DateUTC
2013-06-03 00:02:00,69.0,-99.9,-100.00,SE,135,9.0,13.0,-999,-99.99,,,-99.99,,2013-06-03 07:02:00,
2013-06-03 00:12:00,69.0,-99.9,-100.00,SE,135,9.0,13.0,-999,-99.99,,,-99.99,,2013-06-03 07:12:00,
2013-06-03 00:22:00,69.0,-99.9,-100.00,SE,135,9.0,13.0,-999,-99.99,,,-99.99,,2013-06-03 07:22:00,
2013-06-03 01:40:00,65.0,-99.9,-100.00,SE,144,10.0,13.0,-999,-99.99,,,-99.99,,2013-06-03 08:40:00,
2013-06-03 02:10:00,65.0,-99.9,-100.00,SE,132,13.0,16.0,-999,-99.99,,,-99.99,,2013-06-03 09:10:00,
2013-06-03 02:22:00,65.0,-99.9,-100.00,SE,144,10.0,13.0,-999,-99.99,,,-99.99,,2013-06-03 09:22:00,
2013-06-03 02:33:00,65.0,-99.9,-100.00,SE,144,10.0,13.0,-999,-99.99,,,-99.99,,2013-06-03 09:33:00,
2013-06-03 02:53:00,65.0,-99.9,-100.00,SE,132,13.0,16.0,-999,-99.99,,,-99.99,,2013-06-03 09:53:00,
2013-06-03 03:00:00,65.0,-99.9,-100.00,SE,135,12.0,16.0,-999,-99.99,,,-99.99,,2013-06-03 10:00:00,
2013-06-03 03:03:00,65.0,-99.9,-100.00,SE,132,13.0,16.0,-999,-99.99,,,-99.99,,2013-06-03 10:03:00,
2013-06-03 03:53:00,65.0,-99.9,-100.00,SE,135,12.0,16.0,-999,-99.99,,,-99.99,,2013-06-03 10:53:00,
2013-06-03 05:20:00,58.0,-99.9,-100.00,ENE,74,3.0,5.0,-999,-99.99,,,-99.99,,2013-06-03 12:20:00,
2013-06-03 06:02:00,58.0,-99.9,-100.00,ENE,74,3.0,5.0,-999,-99.99,,,-99.99,,2013-06-03 13:02:00,
2013-06-03 06:12:00,58.0,-99.9,-100.00,ENE,74,3.0,5.0,-999,-99.99,,,-99.99,,2013-06-03 13:12:00,
2013-06-03 08:20:00,79.0,-99.9,-100.00,SE,131,5.0,6.0,-999,-99.99,,,-99.99,,2013-06-03 15:20:00,
2013-06-03 09:03:00,79.0,-99.9,-100.00,SE,131,5.0,6.0,-999,-99.99,,,-99.99,,2013-06-03 16:03:00,
2013-06-03 11:20:00,84.0,-99.9,-100.00,North,2,6.0,21.0,-999,-99.99,,,-99.99,,2013-06-03 18:20:00,
2013-06-03 12:03:00,84.0,-99.9,-100.00,North,2,6.0,21.0,-999,-99.99,,,-99.99,,2013-06-03 19:03:00,
2013-06-03 12:12:00,84.0,-99.9,-100.00,North,2,6.0,21.0,-999,-99.99,,,-99.99,,2013-06-03 19:12:00,
2013-06-03 14:20:00,89.0,-99.9,-100.00,ESE,114,16.0,20.0,-999,-99.99,,,-99.99,,2013-06-03 21:20:00,
2013-06-03 15:03:00,89.0,-99.9,-100.00,ESE,114,16.0,20.0,-999,-99.99,,,-99.99,,2013-06-03 22:03:00,
2013-06-03 15:13:00,89.0,-99.9,-100.00,ESE,114,16.0,20.0,-999,-99.99,,,-99.99,,2013-06-03 22:13:00,
2013-06-03 16:10:00,88.0,-99.9,-100.00,ESE,115,14.0,20.0,-999,-99.99,,,-99.99,,2013-06-03 23:10:00,
2013-06-03 16:53:00,88.0,-99.9,-100.00,ESE,115,14.0,20.0,-999,-99.99,,,-99.99,,2013-06-03 23:53:00,
2013-06-03 17:02:00,88.0,-99.9,-100.00,ESE,115,14.0,20.0,-999,-99.99,,,-99.99,,2013-06-04 00:02:00,
2013-06-03 18:02:00,84.0,-99.9,-100.00,SSE,166,7.0,15.0,-999,-99.99,,,-99.99,,2013-06-04 01:02:00,
2013-06-03 18:12:00,84.0,-99.9,-100.00,SSE,166,7.0,15.0,-999,-99.99,,,-99.99,,2013-06-04 01:12:00,
2013-06-03 18:22:00,84.0,-99.9,-100.00,SSE,166,7.0,15.0,-999,-99.99,,,-99.99,,2013-06-04 01:22:00,
2013-06-03 21:03:00,73.0,-99.9,-100.00,ESE,122,11.0,12.0,-999,-99.99,,,-99.99,,2013-06-04 04:03:00,
2013-06-03 21:13:00,73.0,-99.9,-100.00,ESE,122,11.0,12.0,-999,-99.99,,,-99.99,,2013-06-04 04:13:00,
2013-06-03 21:23:00,73.0,-99.9,-100.00,SE,142,15.0,15.0,-999,-99.99,,,-99.99,,2013-06-04 04:23:00,
2013-06-03 21:33:00,73.0,-99.9,-100.00,SE,142,15.0,15.0,-999,-99.99,,,-99.99,,2013-06-04 04:33:00,
2013-06-03 23:40:00,65.0,-99.9,-100.00,SE,135,8.0,11.0,-999,-99.99,,,-99.99,,2013-06-04 06:40:00,